createdAt,value
2022-07-31T00:00:20.751Z,46.45
2022-07-31T00:07:44.481Z,46.45
2022-07-31T00:10:12.135Z,46.21
2022-07-31T00:12:39.709Z,45.82
2022-07-31T00:15:09.965Z,45.85
2022-07-31T00:17:38.985Z,45.93
2022-07-31T00:20:08.032Z,46.20
2022-07-31T00:22:36.367Z,46.38
2022-07-31T00:25:06.054Z,46.73
2022-07-31T00:27:33.941Z,46.63
2022-07-31T00:30:01.542Z,47.03
2022-07-31T00:32:29.086Z,47.05
2022-07-31T00:34:56.658Z,46.92
2022-07-31T00:37:24.234Z,47.41
2022-07-31T00:39:51.860Z,47.13
2022-07-31T00:42:21.560Z,47.17
2022-07-31T00:44:49.700Z,46.54
2022-07-31T00:47:18.056Z,46.76
2022-07-31T00:49:51.900Z,46.73
2022-07-31T00:52:19.562Z,46.26
2022-07-31T00:54:47.171Z,46.97
2022-07-31T00:57:15.159Z,46.84
2022-07-31T00:59:44.672Z,48.24
2022-07-31T01:02:12.467Z,48.30
2022-07-31T01:04:41.484Z,49.26
2022-07-31T01:07:09.550Z,49.28
2022-07-31T01:09:37.201Z,49.63
2022-07-31T01:12:11.022Z,49.14
2022-07-31T01:14:53.505Z,50.90
2022-07-31T01:17:23.172Z,49.94
2022-07-31T01:19:52.809Z,50.17
2022-07-31T01:22:38.658Z,50.74
2022-07-31T01:25:12.747Z,51.17
2022-07-31T01:27:59.743Z,51.17
2022-07-31T01:30:32.927Z,51.31
2022-07-31T01:33:06.806Z,51.09
2022-07-31T01:35:40.126Z,51.89
2022-07-31T01:38:12.628Z,51.49
2022-07-31T01:40:44.608Z,52.25
2022-07-31T01:43:15.428Z,51.67
2022-07-31T01:45:46.258Z,52.11
2022-07-31T01:48:17.098Z,51.94
2022-07-31T01:50:47.438Z,52.64
2022-07-31T01:53:18.727Z,52.58
2022-07-31T01:56:02.004Z,52.71
2022-07-31T01:59:02.562Z,53.12
2022-07-31T02:01:35.362Z,52.49
2022-07-31T02:04:04.095Z,52.46
2022-07-31T02:06:32.281Z,52.17
2022-07-31T02:09:00.677Z,53.01
2022-07-31T02:11:30.776Z,53.35
2022-07-31T02:14:01.107Z,53.60
2022-07-31T02:16:29.554Z,53.57
2022-07-31T02:18:59.283Z,53.01
2022-07-31T02:21:27.266Z,52.74
2022-07-31T02:23:54.925Z,53.44
2022-07-31T02:26:23.496Z,53.00
2022-07-31T02:28:53.017Z,53.50
2022-07-31T02:31:24.209Z,53.62
2022-07-31T02:33:52.582Z,53.72
2022-07-31T02:36:23.180Z,54.06
2022-07-31T02:38:52.822Z,54.06
2022-07-31T02:41:22.303Z,53.74
2022-07-31T02:43:50.505Z,53.14
2022-07-31T02:46:19.057Z,52.88
2022-07-31T02:48:48.008Z,52.62
2022-07-31T02:51:16.291Z,51.76
2022-07-31T02:53:45.921Z,51.64
2022-07-31T02:56:15.607Z,52.00
2022-07-31T02:58:43.577Z,51.99
2022-07-31T03:01:11.295Z,51.46
2022-07-31T03:03:38.995Z,50.91
2022-07-31T03:06:06.719Z,50.68
2022-07-31T03:08:35.593Z,51.22
2022-07-31T03:11:04.636Z,49.76
2022-07-31T03:13:34.852Z,49.90
2022-07-31T03:16:04.174Z,48.96
2022-07-31T03:18:32.969Z,48.30
2022-07-31T03:21:00.662Z,48.18
2022-07-31T03:23:36.086Z,47.82
2022-07-31T03:26:06.483Z,47.76
2022-07-31T03:28:35.863Z,47.57
2022-07-31T03:31:04.508Z,47.30
2022-07-31T03:33:32.169Z,47.25
2022-07-31T03:35:59.784Z,46.85
2022-07-31T03:38:38.905Z,46.79
2022-07-31T03:41:12.146Z,46.59
2022-07-31T03:43:44.136Z,46.78
2022-07-31T03:46:17.908Z,46.64
2022-07-31T03:48:46.189Z,47.68
2022-07-31T03:51:14.617Z,48.70
2022-07-31T03:53:42.940Z,47.38
2022-07-31T03:56:13.397Z,47.06
2022-07-31T03:58:41.129Z,46.65
2022-07-31T04:01:12.123Z,46.63
2022-07-31T04:03:40.441Z,46.95
2022-07-31T04:06:09.062Z,46.59
2022-07-31T04:08:36.586Z,46.54
2022-07-31T04:11:04.159Z,46.42
2022-07-31T04:13:33.095Z,46.47
2022-07-31T04:16:00.631Z,45.96
2022-07-31T04:18:28.174Z,46.26
2022-07-31T04:20:55.718Z,46.27
2022-07-31T04:23:23.249Z,46.20
2022-07-31T04:25:59.946Z,46.42
2022-07-31T04:28:27.565Z,46.79
2022-07-31T04:30:56.477Z,46.88
2022-07-31T04:33:24.036Z,46.93
2022-07-31T04:35:52.916Z,47.04
2022-07-31T04:38:21.601Z,47.21
2022-07-31T04:40:49.688Z,47.05
2022-07-31T04:43:17.821Z,47.17
2022-07-31T04:45:45.840Z,46.94
2022-07-31T04:48:14.767Z,47.15
2022-07-31T04:50:42.354Z,47.36
2022-07-31T04:53:09.959Z,47.22
2022-07-31T04:55:37.514Z,47.32
2022-07-31T04:58:05.129Z,47.82
2022-07-31T05:00:32.671Z,47.26
2022-07-31T05:03:00.319Z,47.13
2022-07-31T05:05:29.222Z,46.98
2022-07-31T05:07:56.774Z,47.44
2022-07-31T05:10:41.792Z,47.05
2022-07-31T05:13:09.322Z,46.98
2022-07-31T05:15:36.882Z,47.07
2022-07-31T05:18:07.536Z,47.07
2022-07-31T05:20:36.424Z,47.44
2022-07-31T05:23:06.780Z,47.41
2022-07-31T05:25:34.548Z,47.62
2022-07-31T05:28:02.098Z,47.17
2022-07-31T05:30:30.804Z,47.09
2022-07-31T05:32:58.618Z,46.73
2022-07-31T05:35:26.322Z,47.02
2022-07-31T05:37:55.337Z,46.99
2022-07-31T05:40:23.272Z,47.08
2022-07-31T05:42:50.845Z,47.01
2022-07-31T05:45:18.636Z,46.67
2022-07-31T05:47:46.219Z,46.82
2022-07-31T05:50:14.315Z,46.94
2022-07-31T05:52:42.608Z,46.84
2022-07-31T05:55:11.717Z,46.84
2022-07-31T05:57:39.270Z,47.01
2022-07-31T06:00:07.802Z,47.36
2022-07-31T06:02:37.113Z,47.24
2022-07-31T06:05:04.917Z,47.09
2022-07-31T06:07:32.630Z,47.74
2022-07-31T06:10:02.330Z,47.63
2022-07-31T06:12:31.329Z,47.48
2022-07-31T06:15:00.030Z,48.03
2022-07-31T06:17:28.950Z,48.17
2022-07-31T06:20:12.588Z,48.15
2022-07-31T06:22:41.233Z,48.16
2022-07-31T06:25:09.703Z,48.47
2022-07-31T06:27:42.016Z,48.29
2022-07-31T06:30:11.155Z,47.99
2022-07-31T06:32:38.982Z,49.09
2022-07-31T06:35:07.262Z,49.43
2022-07-31T06:37:34.903Z,49.11
2022-07-31T06:40:02.513Z,49.37
2022-07-31T06:42:30.066Z,48.68
2022-07-31T06:44:58.974Z,49.14
2022-07-31T06:47:27.140Z,49.57
2022-07-31T06:49:59.960Z,49.43
2022-07-31T06:52:27.490Z,49.69
2022-07-31T06:54:55.043Z,49.45
2022-07-31T06:57:22.605Z,48.72
2022-07-31T06:59:50.260Z,48.72
2022-07-31T07:02:30.723Z,48.84
2022-07-31T07:05:05.787Z,48.96
2022-07-31T07:07:37.495Z,48.58
2022-07-31T07:10:05.904Z,48.79
2022-07-31T07:12:33.723Z,49.03
2022-07-31T07:15:03.469Z,48.75
2022-07-31T07:17:32.412Z,48.82
2022-07-31T07:20:00.227Z,49.16
2022-07-31T07:22:31.654Z,48.49
2022-07-31T07:25:00.112Z,48.26
2022-07-31T07:27:27.715Z,48.16
2022-07-31T07:29:59.166Z,47.72
2022-07-31T07:32:39.630Z,48.24
2022-07-31T07:35:12.340Z,48.13
2022-07-31T07:37:40.246Z,48.12
2022-07-31T07:40:09.595Z,47.81
2022-07-31T07:42:37.171Z,49.24
2022-07-31T07:45:08.839Z,49.78
2022-07-31T07:47:54.049Z,50.11
2022-07-31T07:50:27.163Z,50.85
2022-07-31T07:52:56.820Z,51.23
2022-07-31T07:55:45.275Z,50.55
2022-07-31T07:58:12.832Z,50.44
2022-07-31T08:03:52.052Z,49.70
2022-07-31T08:06:23.195Z,49.09
2022-07-31T08:08:50.997Z,48.81
2022-07-31T08:11:19.290Z,49.14
2022-07-31T08:14:07.056Z,48.95
2022-07-31T08:16:34.582Z,49.27
2022-07-31T08:19:02.118Z,49.48
2022-07-31T08:21:31.569Z,49.42
2022-07-31T08:23:59.145Z,49.77
2022-07-31T08:26:27.383Z,49.42
2022-07-31T08:28:56.040Z,49.53
2022-07-31T08:31:23.702Z,49.84
2022-07-31T08:33:51.374Z,49.87
2022-07-31T08:36:18.939Z,49.46
2022-07-31T08:38:48.061Z,49.30
2022-07-31T08:41:15.823Z,49.00
2022-07-31T08:44:00.526Z,48.89
2022-07-31T08:46:33.230Z,48.60
2022-07-31T08:49:03.640Z,49.03
2022-07-31T08:51:33.162Z,49.44
2022-07-31T08:54:20.974Z,49.32
2022-07-31T08:56:52.237Z,49.60
2022-07-31T08:59:20.811Z,49.53
2022-07-31T09:01:48.517Z,49.63
2022-07-31T09:04:16.042Z,49.36
2022-07-31T09:06:43.582Z,49.59
2022-07-31T09:09:11.158Z,50.16
2022-07-31T09:11:48.313Z,50.17
2022-07-31T09:14:25.174Z,50.14
2022-07-31T09:16:54.489Z,50.52
2022-07-31T09:19:51.089Z,50.36
2022-07-31T09:22:20.712Z,49.94
2022-07-31T09:24:48.556Z,49.66
2022-07-31T09:27:18.265Z,49.98
2022-07-31T09:29:49.066Z,49.21
2022-07-31T09:32:18.085Z,49.30
2022-07-31T09:34:47.229Z,50.11
2022-07-31T09:37:16.632Z,51.25
2022-07-31T09:39:52.252Z,51.02
2022-07-31T09:42:22.989Z,50.74
2022-07-31T09:44:51.932Z,50.27
2022-07-31T09:47:23.398Z,50.89
2022-07-31T09:49:56.099Z,51.22
2022-07-31T09:52:24.094Z,51.69
2022-07-31T09:55:01.616Z,50.68
2022-07-31T09:57:30.572Z,50.79
2022-07-31T09:59:58.116Z,50.78
2022-07-31T10:02:27.225Z,50.47
2022-07-31T10:04:58.333Z,50.77
2022-07-31T10:07:32.260Z,50.72
2022-07-31T10:10:01.723Z,50.32
2022-07-31T10:12:32.677Z,49.59
2022-07-31T10:15:05.802Z,49.79
2022-07-31T10:17:36.256Z,49.82
2022-07-31T10:20:06.175Z,49.55
2022-07-31T10:22:40.210Z,48.98
2022-07-31T10:25:13.225Z,48.74
2022-07-31T10:27:42.849Z,48.93
2022-07-31T10:30:11.065Z,48.21
2022-07-31T10:32:39.234Z,47.51
2022-07-31T10:35:08.027Z,47.57
2022-07-31T10:37:40.484Z,48.19
2022-07-31T10:40:19.982Z,48.27
2022-07-31T10:42:53.292Z,47.85
2022-07-31T10:45:21.979Z,48.10
2022-07-31T10:47:56.654Z,47.87
2022-07-31T10:50:25.636Z,47.42
2022-07-31T10:52:58.619Z,47.27
2022-07-31T10:55:29.998Z,47.26
2022-07-31T10:58:08.235Z,47.46
2022-07-31T11:00:36.209Z,47.22
2022-07-31T11:03:14.906Z,47.45
2022-07-31T11:06:01.982Z,47.36
2022-07-31T11:08:41.243Z,47.61
2022-07-31T11:11:08.883Z,46.64
2022-07-31T11:13:48.168Z,46.33
2022-07-31T11:16:16.220Z,45.48
2022-07-31T11:18:49.154Z,45.40
2022-07-31T11:21:37.667Z,44.84
2022-07-31T11:24:13.597Z,44.71
2022-07-31T11:26:45.686Z,44.42
2022-07-31T11:30:00.806Z,44.67
2022-07-31T11:32:14.927Z,44.36
2022-07-31T11:34:47.384Z,44.01
2022-07-31T11:37:19.114Z,44.28
2022-07-31T11:39:51.718Z,44.39
2022-07-31T11:42:26.512Z,44.99
2022-07-31T11:45:12.755Z,45.25
2022-07-31T11:48:10.063Z,45.27
2022-07-31T11:50:40.836Z,45.94
2022-07-31T11:53:13.598Z,46.26
2022-07-31T11:55:52.068Z,45.54
2022-07-31T11:58:21.572Z,46.31
2022-07-31T12:00:52.489Z,46.30
2022-07-31T12:03:36.910Z,46.70
2022-07-31T12:06:18.662Z,49.32
2022-07-31T12:10:02.606Z,50.60
2022-07-31T12:12:01.552Z,49.67
2022-07-31T12:14:36.605Z,49.23
2022-07-31T12:17:26.110Z,48.79
2022-07-31T12:19:57.758Z,49.01
2022-07-31T12:22:32.856Z,50.66
2022-07-31T12:25:03.992Z,49.20
2022-07-31T12:27:33.763Z,49.01
2022-07-31T12:30:16.993Z,49.34
2022-07-31T12:32:45.977Z,50.02
2022-07-31T12:35:13.542Z,48.90
2022-07-31T12:37:46.248Z,48.76
2022-07-31T12:40:26.898Z,48.00
2022-07-31T12:42:54.909Z,47.80
2022-07-31T12:45:34.766Z,47.54
2022-07-31T12:48:04.101Z,46.16
2022-07-31T12:50:33.401Z,45.95
2022-07-31T12:53:03.226Z,46.29
2022-07-31T12:55:33.685Z,45.56
2022-07-31T12:58:01.230Z,45.25
2022-07-31T13:00:29.205Z,45.89
2022-07-31T13:02:58.416Z,45.78
2022-07-31T13:05:27.550Z,44.96
2022-07-31T13:07:55.169Z,44.54
2022-07-31T13:10:25.045Z,44.58
2022-07-31T13:12:56.932Z,45.33
2022-07-31T13:15:29.527Z,45.68
2022-07-31T13:17:57.673Z,45.54
2022-07-31T13:20:26.944Z,44.78
2022-07-31T13:22:54.724Z,45.13
2022-07-31T13:25:22.346Z,45.75
2022-07-31T13:27:50.064Z,46.27
2022-07-31T13:30:17.697Z,45.90
2022-07-31T13:32:45.287Z,45.99
2022-07-31T13:35:25.951Z,45.55
2022-07-31T13:37:57.186Z,45.79
2022-07-31T13:40:39.039Z,45.24
2022-07-31T13:43:06.723Z,45.39
2022-07-31T13:45:34.288Z,45.83
2022-07-31T13:48:04.468Z,45.72
2022-07-31T13:50:37.148Z,46.06
2022-07-31T13:53:06.955Z,46.81
2022-07-31T13:55:34.585Z,46.40
2022-07-31T13:58:02.221Z,47.04
2022-07-31T14:00:30.136Z,46.45
2022-07-31T14:02:57.915Z,47.41
2022-07-31T14:05:26.693Z,47.33
2022-07-31T14:08:30.002Z,46.57
2022-07-31T14:10:53.422Z,46.36
2022-07-31T14:13:21.258Z,46.57
2022-07-31T14:15:49.208Z,45.73
2022-07-31T14:18:16.953Z,46.05
2022-07-31T14:20:44.496Z,45.77
2022-07-31T14:23:12.212Z,45.86
2022-07-31T14:25:40.892Z,45.91
2022-07-31T14:28:10.872Z,45.87
2022-07-31T14:30:41.758Z,46.18
2022-07-31T14:36:14.117Z,46.39
2022-07-31T14:38:41.698Z,45.55
2022-07-31T14:41:09.303Z,45.22
2022-07-31T14:43:38.233Z,45.53
2022-07-31T14:46:07.150Z,46.20
2022-07-31T14:48:34.830Z,45.57
2022-07-31T14:51:02.372Z,46.58
2022-07-31T14:53:30.011Z,46.84
2022-07-31T14:56:03.680Z,46.62
2022-07-31T14:58:31.661Z,47.00
2022-07-31T15:01:03.228Z,46.81
2022-07-31T15:03:31.941Z,46.90
2022-07-31T15:06:50.796Z,47.20
2022-07-31T15:08:47.021Z,47.14
2022-07-31T15:11:14.538Z,46.54
2022-07-31T15:13:43.894Z,46.40
2022-07-31T15:16:12.753Z,45.68
2022-07-31T15:18:40.318Z,44.90
2022-07-31T15:21:12.178Z,44.16
2022-07-31T15:23:39.736Z,44.73
2022-07-31T15:26:07.258Z,45.09
2022-07-31T15:28:35.356Z,44.94
2022-07-31T15:31:03.132Z,44.79
2022-07-31T15:33:32.045Z,44.42
2022-07-31T15:35:59.571Z,44.59
2022-07-31T15:38:28.069Z,45.25
2022-07-31T15:40:55.589Z,45.67
2022-07-31T15:43:23.144Z,46.70
2022-07-31T15:45:51.136Z,46.45
2022-07-31T15:48:18.718Z,45.88
2022-07-31T15:50:47.930Z,46.26
2022-07-31T15:53:15.489Z,46.39
2022-07-31T15:55:43.070Z,46.88
2022-07-31T15:58:10.693Z,49.43
2022-07-31T16:00:38.208Z,53.46
2022-07-31T16:03:06.073Z,56.62
2022-07-31T16:05:36.592Z,57.23
2022-07-31T16:08:31.039Z,58.10
2022-07-31T16:10:56.721Z,59.04
2022-07-31T16:13:24.469Z,59.16
2022-07-31T16:15:52.192Z,59.97
2022-07-31T16:18:20.257Z,60.77
2022-07-31T16:20:47.981Z,59.30
2022-07-31T16:23:16.864Z,60.60
2022-07-31T16:25:44.753Z,59.54
2022-07-31T16:28:12.395Z,59.68
2022-07-31T16:30:39.984Z,59.55
2022-07-31T16:33:07.595Z,59.53
2022-07-31T16:35:35.186Z,59.65
2022-07-31T16:38:02.716Z,60.04
2022-07-31T16:40:33.558Z,58.82
2022-07-31T16:43:47.559Z,58.89
2022-07-31T16:45:49.854Z,59.06
2022-07-31T16:48:17.415Z,58.76
2022-07-31T16:50:45.006Z,58.26
2022-07-31T16:54:11.609Z,58.04
2022-07-31T16:56:04.967Z,58.84
2022-07-31T16:58:32.489Z,59.32
2022-07-31T17:01:00.192Z,58.33
2022-07-31T17:04:01.649Z,58.38
2022-07-31T17:06:15.297Z,59.78
2022-07-31T17:08:43.783Z,58.58
2022-07-31T17:11:12.675Z,58.49
2022-07-31T17:13:40.204Z,58.09
2022-07-31T17:16:07.973Z,58.73
2022-07-31T17:18:35.511Z,58.39
2022-07-31T17:21:03.042Z,59.50
2022-07-31T17:23:42.987Z,58.64
2022-07-31T17:26:21.322Z,58.55
2022-07-31T17:28:50.381Z,58.68
2022-07-31T17:31:18.407Z,58.86
2022-07-31T17:33:59.139Z,59.16
2022-07-31T17:36:28.737Z,59.16
2022-07-31T17:38:56.445Z,61.08
2022-07-31T17:41:26.232Z,63.14
2022-07-31T17:43:54.354Z,65.65
2022-07-31T17:46:34.730Z,66.34
2022-07-31T17:49:05.616Z,66.98
2022-07-31T17:51:33.422Z,66.89
2022-07-31T17:54:00.992Z,66.60
2022-07-31T17:56:29.954Z,67.92
2022-07-31T17:59:03.714Z,67.49
2022-07-31T18:01:31.334Z,67.51
2022-07-31T18:03:58.926Z,67.41
2022-07-31T18:06:26.576Z,67.64
2022-07-31T18:08:54.189Z,68.02
2022-07-31T18:11:22.039Z,68.72
2022-07-31T18:13:54.098Z,68.13
2022-07-31T18:16:24.585Z,68.58
2022-07-31T18:18:54.463Z,68.41
2022-07-31T18:21:22.628Z,68.81
2022-07-31T18:23:50.137Z,69.13
2022-07-31T18:26:17.744Z,69.31
2022-07-31T18:28:45.284Z,69.17
2022-07-31T18:31:31.474Z,69.70
2022-07-31T18:34:02.136Z,69.30
2022-07-31T18:36:32.742Z,69.76
2022-07-31T18:39:00.827Z,70.07
2022-07-31T18:41:29.515Z,70.14
2022-07-31T18:43:57.587Z,70.30
2022-07-31T18:46:26.698Z,70.46
2022-07-31T18:48:55.971Z,70.33
2022-07-31T18:51:24.684Z,70.51
2022-07-31T18:53:54.383Z,70.40
2022-07-31T18:56:22.586Z,70.61
2022-07-31T18:58:50.134Z,70.63
2022-07-31T19:01:17.703Z,71.00
2022-07-31T19:03:46.652Z,70.82
2022-07-31T19:06:14.237Z,71.31
2022-07-31T19:08:41.927Z,71.20
2022-07-31T19:11:09.553Z,71.09
2022-07-31T19:13:37.081Z,71.28
2022-07-31T19:16:05.652Z,71.52
2022-07-31T19:18:33.588Z,71.74
2022-07-31T19:21:23.168Z,71.49
2022-07-31T19:23:51.041Z,71.25
2022-07-31T19:26:18.622Z,71.84
2022-07-31T19:28:47.521Z,71.74
2022-07-31T19:31:17.293Z,71.99
2022-07-31T19:33:45.243Z,72.00
2022-07-31T19:36:15.394Z,72.17
2022-07-31T19:38:44.264Z,72.42
2022-07-31T19:41:12.136Z,72.44
2022-07-31T19:43:39.819Z,72.13
2022-07-31T19:46:12.713Z,72.34
2022-07-31T19:48:42.314Z,71.85
2022-07-31T19:51:12.116Z,71.87
2022-07-31T19:53:43.548Z,71.62
2022-07-31T19:56:18.101Z,72.01
2022-07-31T19:58:48.149Z,71.62
2022-07-31T20:01:15.962Z,71.68
2022-07-31T20:03:44.021Z,71.90
2022-07-31T20:06:11.753Z,71.63
2022-07-31T20:08:42.195Z,71.89
2022-07-31T20:11:10.139Z,72.22
2022-07-31T20:13:38.486Z,71.52
2022-07-31T20:16:07.217Z,71.75
2022-07-31T20:18:34.942Z,71.79
2022-07-31T20:21:06.863Z,71.72
2022-07-31T20:23:38.012Z,72.11
2022-07-31T20:26:07.776Z,72.06
2022-07-31T20:28:35.712Z,72.09
2022-07-31T20:31:03.705Z,71.84
2022-07-31T20:33:31.516Z,71.85
2022-07-31T20:35:59.653Z,71.59
2022-07-31T20:38:27.520Z,72.04
2022-07-31T20:40:56.232Z,71.97
2022-07-31T20:43:27.577Z,71.75
2022-07-31T20:45:57.888Z,71.83
2022-07-31T20:48:31.182Z,72.25
2022-07-31T20:50:59.893Z,71.96
2022-07-31T20:53:28.102Z,71.82
2022-07-31T20:55:55.687Z,71.98
2022-07-31T20:58:28.199Z,72.12
2022-07-31T21:00:57.148Z,71.69
2022-07-31T21:03:24.856Z,72.09
2022-07-31T21:05:52.531Z,72.63
2022-07-31T21:08:20.231Z,72.35
2022-07-31T21:10:52.991Z,72.57
2022-07-31T21:13:20.776Z,72.30
2022-07-31T21:15:51.323Z,72.10
2022-07-31T21:18:20.375Z,72.17
2022-07-31T21:20:52.414Z,72.53
2022-07-31T21:23:21.561Z,72.16
2022-07-31T21:25:50.079Z,72.06
2022-07-31T21:28:18.251Z,71.96
2022-07-31T21:30:46.110Z,71.63
2022-07-31T21:33:15.311Z,71.62
2022-07-31T21:35:44.958Z,71.72
2022-07-31T21:38:15.063Z,71.57
2022-07-31T21:40:43.676Z,72.22
2022-07-31T21:43:18.641Z,72.50
2022-07-31T21:45:57.756Z,72.17
2022-07-31T21:48:32.289Z,72.89
2022-07-31T21:51:00.710Z,72.75
2022-07-31T21:53:28.464Z,72.76
2022-07-31T21:55:58.238Z,72.72
2022-07-31T21:58:25.859Z,73.36
2022-07-31T22:00:53.540Z,72.34
2022-07-31T22:03:21.238Z,72.54
2022-07-31T22:06:07.852Z,72.37
2022-07-31T22:08:35.434Z,72.62
2022-07-31T22:11:03.064Z,72.78
2022-07-31T22:13:30.634Z,72.93
2022-07-31T22:16:00.866Z,72.75
2022-07-31T22:18:29.688Z,72.46
2022-07-31T22:20:59.972Z,72.63
2022-07-31T22:23:28.667Z,72.90
2022-07-31T22:25:56.925Z,72.77
2022-07-31T22:28:26.380Z,72.84
2022-07-31T22:30:54.378Z,72.43
2022-07-31T22:33:23.169Z,72.65
2022-07-31T22:35:59.296Z,72.59
2022-07-31T22:38:30.932Z,72.77
2022-07-31T22:41:01.543Z,72.14
2022-07-31T22:44:14.025Z,72.30
2022-07-31T22:46:18.561Z,72.10
2022-07-31T22:48:47.043Z,72.61
2022-07-31T22:51:15.745Z,72.53
2022-07-31T22:53:49.067Z,72.19
2022-07-31T22:56:17.177Z,72.71
2022-07-31T22:58:44.723Z,72.75
2022-07-31T23:01:12.436Z,72.61
2022-07-31T23:03:40.140Z,72.95
2022-07-31T23:06:31.188Z,73.04
2022-07-31T23:08:57.244Z,73.84
2022-07-31T23:11:25.480Z,73.77
2022-07-31T23:13:53.579Z,73.23
2022-07-31T23:16:22.144Z,73.47
2022-07-31T23:18:51.760Z,73.49
2022-07-31T23:21:20.689Z,73.59
2022-07-31T23:23:48.977Z,73.94
2022-07-31T23:26:19.805Z,74.08
2022-07-31T23:28:47.512Z,73.89
2022-07-31T23:31:15.300Z,74.10
2022-07-31T23:33:42.897Z,73.43
2022-07-31T23:36:10.556Z,74.12
2022-07-31T23:38:38.148Z,73.98
2022-07-31T23:41:05.819Z,73.92
2022-07-31T23:43:33.751Z,73.83
2022-07-31T23:46:01.467Z,73.76
2022-07-31T23:48:29.315Z,73.40
2022-07-31T23:50:58.032Z,73.62
2022-07-31T23:53:25.576Z,73.78
2022-07-31T23:55:53.294Z,74.02
2022-07-31T23:58:21.179Z,74.00
